Aviation Digital Data Service (ADDS)

Output produced by METARs form (0454 UTC 14 December 2018)
found at http://www.aviationweather.gov/metar/data/
 
Forecast for: KLAX (LOS ANGELES , CA, US)
Text: KLAX 140257Z 1403/1506 VRB03KT P6SM SCT250
Forecast period: 0300 to 0600 UTC 14 December 2018
Forecast type: FROM: standard forecast or significant change
Winds: variable direction winds at 3 MPH (3 knots; 1.5 m/s)
Visibility: 6 or more miles 10+ km)
Ceiling: at least 12,000 feet AGL
Clouds: scattered clouds at 25000 feet AGL
Weather: no significant weather forecast for this period
Text: FM140600 09003KT P6SM BKN250
Forecast period: 0600 to 2100 UTC 14 December 2018
Forecast type: FROM: standard forecast or significant change
Winds: from the E (90 degrees) at 3 MPH (3 knots; 1.5 m/s)
Visibility: 6 or more miles 10+ km)
Ceiling: 25000 feet AGL
Clouds: broken clouds at 25000 feet AGL
Weather: no significant weather forecast for this period
Text: FM142100 26007KT P6SM OVC200
Forecast period: 2100 UTC 14 December 2018 to 0600 UTC 15 December 2018
Forecast type: FROM: standard forecast or significant change
Winds: from the W (260 degrees) at 8 MPH (7 knots; 3.6 m/s)
Visibility: 6 or more miles 10+ km)
Ceiling: 20000 feet AGL
Clouds: overcast cloud deck at 20000 feet AGL
Weather: no significant weather forecast for this period